EDW721D LSZH-LEBB
Flight info
| Callsign | EDW721D |
|---|---|
| Flight time | 1h 31m |
| Altitude | 33000 |
| Route | VEBIT T50 ROTOS Z669 ULMES DCT VADAR DCT NINTU/N0440F390 DCT MEBAK DCT REPSI DCT LERGA DCT MINSO DCT NARAK DCT AGN DCT DIGPO DCT ERAKI N976 PPN M601 CEGAM |
| Aircraft | A20N/M-SDE2E3FGHIRWXY/LB1 |
Departure
| Time | 2026-04-26 10:28 |
|---|---|
| Airport | Zürich Airport (LSZH) |
Arrival
| Time | 2026-04-26 11:59 |
|---|---|
| Airport | Bilbao Airport (LEBB) |
| Time | Latitude | Longitude | Altitude | Speed | Heading |
|---|---|---|---|---|---|
| 2026-04-26 09:55 | 47.45172 | 8.55800 | 1404 ft | 0 kts | 187° |
| 2026-04-26 10:16 | 47.45173 | 8.55800 | 1405 ft | 0 kts | 187° |
| 2026-04-26 10:16 | 47.45182 | 8.55802 | 1405 ft | 2 kts | 187° |
| 2026-04-26 10:17 | 47.45197 | 8.55805 | 1405 ft | 2 kts | 187° |
| 2026-04-26 10:17 | 47.45212 | 8.55807 | 1405 ft | 2 kts | 187° |
| 2026-04-26 10:17 | 47.45227 | 8.55810 | 1405 ft | 2 kts | 199° |
| 2026-04-26 10:17 | 47.45240 | 8.55821 | 1405 ft | 2 kts | 221° |
| 2026-04-26 10:18 | 47.45250 | 8.55838 | 1405 ft | 2 kts | 244° |
| 2026-04-26 10:18 | 47.45255 | 8.55859 | 1406 ft | 2 kts | 265° |
| 2026-04-26 10:18 | 47.45255 | 8.55871 | 1406 ft | 1 kts | 278° |
| 2026-04-26 10:18 | 47.45254 | 8.55879 | 1406 ft | 0 kts | 277° |
| 2026-04-26 10:21 | 47.45254 | 8.55877 | 1406 ft | 1 kts | 277° |
| 2026-04-26 10:22 | 47.45257 | 8.55841 | 1405 ft | 6 kts | 277° |
| 2026-04-26 10:22 | 47.45263 | 8.55763 | 1404 ft | 9 kts | 276° |
| 2026-04-26 10:22 | 47.45271 | 8.55650 | 1402 ft | 12 kts | 276° |
| 2026-04-26 10:22 | 47.45319 | 8.55548 | 1401 ft | 13 kts | 338° |
| 2026-04-26 10:23 | 47.45410 | 8.55488 | 1399 ft | 15 kts | 335° |
| 2026-04-26 10:23 | 47.45514 | 8.55416 | 1398 ft | 16 kts | 334° |
| 2026-04-26 10:23 | 47.45622 | 8.55343 | 1396 ft | 14 kts | 337° |
| 2026-04-26 10:23 | 47.45671 | 8.55391 | 1396 ft | 10 kts | 93° |
| 2026-04-26 10:24 | 47.45663 | 8.55501 | 1397 ft | 10 kts | 96° |
| 2026-04-26 10:24 | 47.45656 | 8.55607 | 1398 ft | 10 kts | 95° |
| 2026-04-26 10:24 | 47.45649 | 8.55708 | 1400 ft | 9 kts | 96° |
| 2026-04-26 10:24 | 47.45643 | 8.55814 | 1402 ft | 11 kts | 95° |
| 2026-04-26 10:25 | 47.45634 | 8.55930 | 1403 ft | 11 kts | 97° |
| 2026-04-26 10:25 | 47.45625 | 8.56044 | 1405 ft | 11 kts | 96° |
| 2026-04-26 10:25 | 47.45617 | 8.56175 | 1408 ft | 13 kts | 95° |
| 2026-04-26 10:25 | 47.45606 | 8.56311 | 1411 ft | 13 kts | 97° |
| 2026-04-26 10:26 | 47.45595 | 8.56453 | 1414 ft | 14 kts | 96° |
| 2026-04-26 10:26 | 47.45583 | 8.56617 | 1417 ft | 17 kts | 97° |
| 2026-04-26 10:26 | 47.45569 | 8.56806 | 1421 ft | 17 kts | 95° |
| 2026-04-26 10:26 | 47.45562 | 8.56950 | 1424 ft | 10 kts | 85° |
| 2026-04-26 10:27 | 47.45603 | 8.57013 | 1425 ft | 9 kts | 7° |
| 2026-04-26 10:27 | 47.45661 | 8.56991 | 1424 ft | 9 kts | 290° |
| 2026-04-26 10:27 | 47.45664 | 8.56961 | 1423 ft | 0 kts | 276° |
| 2026-04-26 10:27 | 47.45673 | 8.56840 | 1421 ft | 46 kts | 276° |
| 2026-04-26 10:28 | 47.45739 | 8.55926 | 1402 ft | 128 kts | 276° |
| 2026-04-26 10:28 | 47.45849 | 8.54312 | 1569 ft | 173 kts | 277° |
| 2026-04-26 10:28 | 47.45968 | 8.52556 | 2334 ft | 174 kts | 278° |
| 2026-04-26 10:28 | 47.46080 | 8.50831 | 3187 ft | 173 kts | 278° |
| 2026-04-26 10:29 | 47.46201 | 8.49056 | 3920 ft | 174 kts | 277° |
| 2026-04-26 10:29 | 47.46046 | 8.47285 | 4533 ft | 182 kts | 244° |
| 2026-04-26 10:29 | 47.45141 | 8.45887 | 4961 ft | 199 kts | 211° |
| 2026-04-26 10:29 | 47.43972 | 8.44651 | 5516 ft | 211 kts | 223° |
| 2026-04-26 10:30 | 47.42955 | 8.43009 | 6039 ft | 225 kts | 231° |
| 2026-04-26 10:30 | 47.41994 | 8.41079 | 6518 ft | 244 kts | 236° |
| 2026-04-26 10:30 | 47.40982 | 8.38894 | 7011 ft | 265 kts | 236° |
| 2026-04-26 10:30 | 47.39896 | 8.36590 | 7567 ft | 282 kts | 236° |
| 2026-04-26 10:31 | 47.38817 | 8.34137 | 8313 ft | 290 kts | 239° |
| 2026-04-26 10:31 | 47.37832 | 8.31489 | 9197 ft | 293 kts | 242° |
| 2026-04-26 10:31 | 47.36880 | 8.28811 | 10051 ft | 295 kts | 243° |
| 2026-04-26 10:31 | 47.35929 | 8.26124 | 10837 ft | 301 kts | 243° |
| 2026-04-26 10:32 | 47.34929 | 8.23303 | 11299 ft | 317 kts | 243° |
| 2026-04-26 10:32 | 47.33872 | 8.20326 | 11878 ft | 329 kts | 243° |
| 2026-04-26 10:32 | 47.32799 | 8.17312 | 12681 ft | 332 kts | 243° |
| 2026-04-26 10:32 | 47.31730 | 8.14315 | 13483 ft | 334 kts | 243° |
| 2026-04-26 10:33 | 47.30637 | 8.11242 | 14265 ft | 337 kts | 243° |
| 2026-04-26 10:33 | 47.29542 | 8.08160 | 15059 ft | 340 kts | 243° |
| 2026-04-26 10:33 | 47.28445 | 8.05080 | 15802 ft | 342 kts | 243° |
| 2026-04-26 10:33 | 47.27340 | 8.01960 | 16538 ft | 345 kts | 244° |
| 2026-04-26 10:34 | 47.26333 | 7.98761 | 17256 ft | 347 kts | 248° |
| 2026-04-26 10:34 | 47.25407 | 7.95473 | 17955 ft | 349 kts | 249° |
| 2026-04-26 10:34 | 47.24474 | 7.92124 | 18639 ft | 352 kts | 249° |
| 2026-04-26 10:34 | 47.23544 | 7.88782 | 19307 ft | 355 kts | 249° |
| 2026-04-26 10:35 | 47.22604 | 7.85420 | 19958 ft | 358 kts | 249° |
| 2026-04-26 10:35 | 47.21640 | 7.81984 | 20581 ft | 362 kts | 249° |
| 2026-04-26 10:35 | 47.20668 | 7.78528 | 21210 ft | 365 kts | 248° |
| 2026-04-26 10:35 | 47.19646 | 7.75091 | 21836 ft | 368 kts | 245° |
| 2026-04-26 10:36 | 47.18395 | 7.71795 | 22462 ft | 371 kts | 239° |
| 2026-04-26 10:36 | 47.16890 | 7.68653 | 23078 ft | 375 kts | 233° |
| 2026-04-26 10:36 | 47.15280 | 7.65639 | 23686 ft | 378 kts | 233° |
| 2026-04-26 10:36 | 47.13655 | 7.62641 | 24284 ft | 380 kts | 233° |
| 2026-04-26 10:37 | 47.11990 | 7.59573 | 24864 ft | 383 kts | 233° |
| 2026-04-26 10:37 | 47.10321 | 7.56495 | 25422 ft | 386 kts | 233° |
| 2026-04-26 10:37 | 47.08637 | 7.53386 | 25959 ft | 389 kts | 233° |
| 2026-04-26 10:37 | 47.06961 | 7.50294 | 26482 ft | 392 kts | 233° |
| 2026-04-26 10:38 | 47.05241 | 7.47123 | 27001 ft | 394 kts | 233° |
| 2026-04-26 10:38 | 47.03531 | 7.43974 | 27491 ft | 397 kts | 233° |
| 2026-04-26 10:38 | 47.01803 | 7.40800 | 27959 ft | 400 kts | 233° |
| 2026-04-26 10:38 | 47.00044 | 7.37583 | 28397 ft | 402 kts | 233° |
| 2026-04-26 10:39 | 46.98281 | 7.34366 | 28821 ft | 405 kts | 232° |
| 2026-04-26 10:39 | 46.96476 | 7.31078 | 29247 ft | 407 kts | 232° |
| 2026-04-26 10:39 | 46.94683 | 7.27812 | 29654 ft | 409 kts | 232° |
| 2026-04-26 10:39 | 46.92873 | 7.24514 | 30050 ft | 411 kts | 232° |
| 2026-04-26 10:40 | 46.91069 | 7.21225 | 30409 ft | 413 kts | 232° |
| 2026-04-26 10:40 | 46.89238 | 7.17889 | 30757 ft | 415 kts | 232° |
| 2026-04-26 10:40 | 46.87407 | 7.14559 | 31232 ft | 413 kts | 232° |
| 2026-04-26 10:40 | 46.85581 | 7.11243 | 31719 ft | 411 kts | 232° |
| 2026-04-26 10:41 | 46.83854 | 7.08108 | 32077 ft | 411 kts | 232° |
| 2026-04-26 10:41 | 46.82049 | 7.04836 | 32384 ft | 413 kts | 232° |
| 2026-04-26 10:41 | 46.80241 | 7.01561 | 32682 ft | 414 kts | 232° |
| 2026-04-26 10:41 | 46.78400 | 6.98231 | 32996 ft | 415 kts | 232° |
| 2026-04-26 10:42 | 46.76559 | 6.94905 | 33182 ft | 417 kts | 232° |
| 2026-04-26 10:42 | 46.74721 | 6.91586 | 33186 ft | 418 kts | 232° |
| 2026-04-26 10:42 | 46.71052 | 6.84975 | 33193 ft | 418 kts | 232° |
| 2026-04-26 10:43 | 46.67408 | 6.78405 | 33196 ft | 418 kts | 233° |
| 2026-04-26 10:43 | 46.64059 | 6.71429 | 33196 ft | 418 kts | 239° |
| 2026-04-26 10:44 | 46.61027 | 6.64171 | 33195 ft | 418 kts | 240° |
| 2026-04-26 10:44 | 46.58011 | 6.56952 | 33187 ft | 419 kts | 240° |
| 2026-04-26 10:45 | 46.54979 | 6.49715 | 33185 ft | 419 kts | 240° |
| 2026-04-26 10:45 | 46.53450 | 6.46073 | 33316 ft | 422 kts | 240° |
| 2026-04-26 10:45 | 46.51925 | 6.42445 | 33706 ft | 420 kts | 240° |
| 2026-04-26 10:46 | 46.50405 | 6.38832 | 34123 ft | 418 kts | 240° |
| 2026-04-26 10:46 | 46.48901 | 6.35263 | 34476 ft | 417 kts | 240° |
| 2026-04-26 10:46 | 46.47495 | 6.31929 | 34783 ft | 416 kts | 239° |
| 2026-04-26 10:46 | 46.45926 | 6.28216 | 35055 ft | 416 kts | 239° |
| 2026-04-26 10:47 | 46.44369 | 6.24537 | 35181 ft | 417 kts | 239° |
| 2026-04-26 10:47 | 46.42855 | 6.20961 | 35186 ft | 417 kts | 239° |
| 2026-04-26 10:47 | 46.39769 | 6.13688 | 35186 ft | 417 kts | 239° |
| 2026-04-26 10:48 | 46.36707 | 6.06490 | 35189 ft | 417 kts | 239° |
| 2026-04-26 10:48 | 46.33657 | 5.99339 | 35186 ft | 417 kts | 239° |
| 2026-04-26 10:49 | 46.30626 | 5.92250 | 35179 ft | 417 kts | 239° |
| 2026-04-26 10:49 | 46.27570 | 5.85122 | 35176 ft | 416 kts | 239° |
| 2026-04-26 10:50 | 46.25012 | 5.79166 | 35178 ft | 417 kts | 239° |
| 2026-04-26 10:50 | 46.21442 | 5.70877 | 35173 ft | 418 kts | 239° |
| 2026-04-26 10:51 | 46.16797 | 5.60126 | 35174 ft | 419 kts | 239° |
| 2026-04-26 10:52 | 46.13631 | 5.53069 | 35176 ft | 420 kts | 237° |
| 2026-04-26 10:52 | 46.11965 | 5.49595 | 35347 ft | 421 kts | 237° |
| 2026-04-26 10:52 | 46.10324 | 5.46177 | 35632 ft | 419 kts | 237° |
| 2026-04-26 10:52 | 46.08669 | 5.42731 | 35887 ft | 418 kts | 237° |
| 2026-04-26 10:53 | 46.07001 | 5.39261 | 36110 ft | 418 kts | 237° |
| 2026-04-26 10:53 | 46.05348 | 5.35822 | 36314 ft | 418 kts | 237° |
| 2026-04-26 10:53 | 46.03701 | 5.32404 | 36512 ft | 417 kts | 236° |
| 2026-04-26 10:54 | 46.00343 | 5.25444 | 36989 ft | 417 kts | 236° |
| 2026-04-26 10:54 | 45.98664 | 5.21968 | 37234 ft | 417 kts | 236° |
| 2026-04-26 10:54 | 45.96984 | 5.18496 | 37478 ft | 417 kts | 236° |
| 2026-04-26 10:54 | 45.95316 | 5.15055 | 37724 ft | 417 kts | 236° |
| 2026-04-26 10:55 | 45.93659 | 5.11639 | 37944 ft | 417 kts | 236° |
| 2026-04-26 10:55 | 45.91975 | 5.08175 | 38121 ft | 418 kts | 236° |
| 2026-04-26 10:55 | 45.90316 | 5.04762 | 38306 ft | 418 kts | 236° |
| 2026-04-26 10:55 | 45.89199 | 5.02466 | 38419 ft | 419 kts | 236° |
| 2026-04-26 10:56 | 45.86943 | 4.97837 | 38632 ft | 419 kts | 236° |
| 2026-04-26 10:56 | 45.85242 | 4.94353 | 38792 ft | 420 kts | 236° |
| 2026-04-26 10:56 | 45.83550 | 4.90888 | 38955 ft | 420 kts | 236° |
| 2026-04-26 10:56 | 45.81860 | 4.87432 | 39110 ft | 420 kts | 237° |
| 2026-04-26 10:57 | 45.78443 | 4.80460 | 39175 ft | 420 kts | 237° |
| 2026-04-26 10:57 | 45.75090 | 4.73631 | 39178 ft | 419 kts | 237° |
| 2026-04-26 10:58 | 45.71712 | 4.66772 | 39178 ft | 420 kts | 237° |
| 2026-04-26 10:58 | 45.68282 | 4.59831 | 39177 ft | 420 kts | 237° |
| 2026-04-26 10:59 | 45.64886 | 4.52972 | 39178 ft | 420 kts | 237° |
| 2026-04-26 10:59 | 45.61499 | 4.46143 | 39185 ft | 421 kts | 237° |
| 2026-04-26 11:00 | 45.58057 | 4.39215 | 39184 ft | 421 kts | 237° |
| 2026-04-26 11:00 | 45.54626 | 4.32328 | 39190 ft | 422 kts | 236° |
| 2026-04-26 11:01 | 45.51164 | 4.25403 | 39192 ft | 422 kts | 236° |
| 2026-04-26 11:01 | 45.47703 | 4.18510 | 39191 ft | 422 kts | 236° |
| 2026-04-26 11:02 | 45.44264 | 4.11672 | 39197 ft | 423 kts | 236° |
| 2026-04-26 11:02 | 45.40834 | 4.04863 | 39194 ft | 423 kts | 236° |
| 2026-04-26 11:03 | 45.37363 | 3.97988 | 39199 ft | 423 kts | 236° |
| 2026-04-26 11:03 | 45.33897 | 3.91139 | 39208 ft | 423 kts | 236° |
| 2026-04-26 11:04 | 45.30451 | 3.84343 | 39203 ft | 423 kts | 236° |
| 2026-04-26 11:04 | 45.27001 | 3.77558 | 39207 ft | 424 kts | 236° |
| 2026-04-26 11:05 | 45.23560 | 3.70705 | 39211 ft | 423 kts | 237° |
| 2026-04-26 11:05 | 45.20165 | 3.63792 | 39212 ft | 424 kts | 237° |
| 2026-04-26 11:06 | 45.17337 | 3.58048 | 39224 ft | 424 kts | 237° |
| 2026-04-26 11:06 | 45.13360 | 3.50004 | 39221 ft | 424 kts | 237° |
| 2026-04-26 11:07 | 45.09969 | 3.43161 | 39213 ft | 425 kts | 237° |
| 2026-04-26 11:07 | 45.06536 | 3.36255 | 39213 ft | 425 kts | 237° |
| 2026-04-26 11:08 | 45.03104 | 3.29366 | 39213 ft | 425 kts | 237° |
| 2026-04-26 11:08 | 44.99652 | 3.22450 | 39217 ft | 425 kts | 237° |
| 2026-04-26 11:09 | 44.96180 | 3.15514 | 39225 ft | 426 kts | 237° |
| 2026-04-26 11:09 | 44.92715 | 3.08605 | 39215 ft | 426 kts | 237° |
| 2026-04-26 11:10 | 44.89275 | 3.01761 | 39215 ft | 426 kts | 237° |
| 2026-04-26 11:10 | 44.85852 | 2.94972 | 39222 ft | 426 kts | 237° |
| 2026-04-26 11:11 | 44.82513 | 2.87925 | 39219 ft | 426 kts | 239° |
| 2026-04-26 11:11 | 44.79269 | 2.80885 | 39212 ft | 426 kts | 239° |
| 2026-04-26 11:12 | 44.76028 | 2.73861 | 39210 ft | 426 kts | 239° |
| 2026-04-26 11:12 | 44.72780 | 2.66843 | 39204 ft | 426 kts | 239° |
| 2026-04-26 11:13 | 44.69513 | 2.59798 | 39193 ft | 427 kts | 239° |
| 2026-04-26 11:13 | 44.66245 | 2.52769 | 39194 ft | 427 kts | 239° |
| 2026-04-26 11:14 | 44.62970 | 2.45742 | 39189 ft | 427 kts | 239° |
| 2026-04-26 11:14 | 44.60234 | 2.39885 | 39184 ft | 428 kts | 239° |
| 2026-04-26 11:15 | 44.56394 | 2.31682 | 39182 ft | 427 kts | 239° |
| 2026-04-26 11:15 | 44.53171 | 2.24816 | 39180 ft | 427 kts | 239° |
| 2026-04-26 11:16 | 44.49838 | 2.17733 | 39178 ft | 428 kts | 239° |
| 2026-04-26 11:16 | 44.46561 | 2.10787 | 39171 ft | 428 kts | 239° |
| 2026-04-26 11:17 | 44.43251 | 2.03785 | 39167 ft | 428 kts | 239° |
| 2026-04-26 11:17 | 44.39951 | 1.96821 | 39170 ft | 428 kts | 239° |
| 2026-04-26 11:18 | 44.36655 | 1.89880 | 39169 ft | 428 kts | 239° |
| 2026-04-26 11:18 | 44.33312 | 1.82857 | 39174 ft | 429 kts | 239° |
| 2026-04-26 11:19 | 44.30000 | 1.75919 | 39175 ft | 429 kts | 239° |
| 2026-04-26 11:19 | 44.26740 | 1.68919 | 39173 ft | 429 kts | 240° |
| 2026-04-26 11:20 | 44.24045 | 1.63027 | 39171 ft | 428 kts | 240° |
| 2026-04-26 11:20 | 44.20250 | 1.54768 | 39173 ft | 428 kts | 240° |
| 2026-04-26 11:21 | 44.16998 | 1.47715 | 39168 ft | 429 kts | 240° |
| 2026-04-26 11:21 | 44.13768 | 1.40734 | 39173 ft | 429 kts | 240° |
| 2026-04-26 11:22 | 44.10503 | 1.33698 | 39176 ft | 429 kts | 239° |
| 2026-04-26 11:22 | 44.07392 | 1.27004 | 39173 ft | 429 kts | 239° |
| 2026-04-26 11:23 | 44.04048 | 1.19827 | 39172 ft | 430 kts | 239° |
| 2026-04-26 11:23 | 44.00784 | 1.12838 | 39173 ft | 430 kts | 239° |
| 2026-04-26 11:24 | 43.97510 | 1.05842 | 39173 ft | 430 kts | 239° |
| 2026-04-26 11:24 | 43.94236 | 0.98865 | 39176 ft | 430 kts | 239° |
| 2026-04-26 11:25 | 43.90951 | 0.91886 | 39175 ft | 430 kts | 239° |
| 2026-04-26 11:25 | 43.87356 | 0.85133 | 39174 ft | 432 kts | 232° |
| 2026-04-26 11:26 | 43.83441 | 0.79016 | 39173 ft | 432 kts | 230° |
| 2026-04-26 11:26 | 43.79371 | 0.72739 | 39174 ft | 432 kts | 230° |
| 2026-04-26 11:27 | 43.75309 | 0.66476 | 39176 ft | 433 kts | 230° |
| 2026-04-26 11:27 | 43.71234 | 0.60208 | 39180 ft | 433 kts | 230° |
| 2026-04-26 11:28 | 43.67158 | 0.53948 | 39180 ft | 433 kts | 230° |
| 2026-04-26 11:28 | 43.63100 | 0.47726 | 39181 ft | 433 kts | 230° |
| 2026-04-26 11:29 | 43.59040 | 0.41514 | 39181 ft | 433 kts | 230° |
| 2026-04-26 11:29 | 43.54985 | 0.35285 | 39181 ft | 433 kts | 232° |
| 2026-04-26 11:30 | 43.52121 | 0.30255 | 39181 ft | 432 kts | 236° |
| 2026-04-26 11:30 | 43.48340 | 0.21726 | 39181 ft | 431 kts | 244° |
| 2026-04-26 11:31 | 43.45555 | 0.14322 | 39185 ft | 431 kts | 244° |
| 2026-04-26 11:31 | 43.42764 | 0.06923 | 39184 ft | 431 kts | 244° |
| 2026-04-26 11:32 | 43.39959 | -0.00475 | 39190 ft | 431 kts | 244° |
| 2026-04-26 11:32 | 43.37167 | -0.07813 | 39195 ft | 431 kts | 244° |
| 2026-04-26 11:33 | 43.34354 | -0.15182 | 39198 ft | 432 kts | 244° |
| 2026-04-26 11:33 | 43.31540 | -0.22538 | 39196 ft | 432 kts | 244° |
| 2026-04-26 11:34 | 43.28715 | -0.29901 | 39199 ft | 432 kts | 244° |
| 2026-04-26 11:34 | 43.25903 | -0.37214 | 38787 ft | 432 kts | 244° |
| 2026-04-26 11:35 | 43.24480 | -0.40909 | 37667 ft | 440 kts | 244° |
| 2026-04-26 11:35 | 43.23033 | -0.44658 | 36702 ft | 444 kts | 244° |
| 2026-04-26 11:35 | 43.21575 | -0.48435 | 36093 ft | 444 kts | 244° |
| 2026-04-26 11:35 | 43.20615 | -0.50914 | 35688 ft | 444 kts | 244° |
| 2026-04-26 11:36 | 43.18657 | -0.55971 | 34823 ft | 446 kts | 244° |
| 2026-04-26 11:36 | 43.17181 | -0.59776 | 34092 ft | 447 kts | 244° |
| 2026-04-26 11:36 | 43.15715 | -0.63553 | 33381 ft | 447 kts | 244° |
| 2026-04-26 11:36 | 43.14303 | -0.67186 | 32711 ft | 447 kts | 243° |
| 2026-04-26 11:37 | 43.12825 | -0.70983 | 32004 ft | 446 kts | 243° |
| 2026-04-26 11:37 | 43.11372 | -0.74708 | 31293 ft | 446 kts | 243° |
| 2026-04-26 11:37 | 43.09913 | -0.78448 | 30581 ft | 446 kts | 242° |
| 2026-04-26 11:37 | 43.08434 | -0.82233 | 30011 ft | 442 kts | 242° |
| 2026-04-26 11:38 | 43.07001 | -0.85893 | 29551 ft | 437 kts | 242° |
| 2026-04-26 11:38 | 43.05570 | -0.89546 | 29086 ft | 432 kts | 242° |
| 2026-04-26 11:38 | 43.04165 | -0.93127 | 28628 ft | 427 kts | 242° |
| 2026-04-26 11:38 | 43.02763 | -0.96697 | 28166 ft | 423 kts | 242° |
| 2026-04-26 11:39 | 43.01373 | -1.00229 | 27705 ft | 418 kts | 242° |
| 2026-04-26 11:39 | 42.99994 | -1.03727 | 27241 ft | 415 kts | 242° |
| 2026-04-26 11:39 | 42.98614 | -1.07219 | 26789 ft | 411 kts | 242° |
| 2026-04-26 11:39 | 42.97224 | -1.10714 | 26338 ft | 408 kts | 242° |
| 2026-04-26 11:40 | 42.95886 | -1.14077 | 25892 ft | 405 kts | 242° |
| 2026-04-26 11:40 | 42.94533 | -1.17474 | 25436 ft | 401 kts | 242° |
| 2026-04-26 11:40 | 42.93205 | -1.20806 | 24989 ft | 398 kts | 242° |
| 2026-04-26 11:40 | 42.91880 | -1.24127 | 24534 ft | 395 kts | 242° |
| 2026-04-26 11:41 | 42.90567 | -1.27421 | 24084 ft | 392 kts | 242° |
| 2026-04-26 11:42 | 42.81739 | -1.49442 | 21031 ft | 374 kts | 242° |
| 2026-04-26 11:43 | 42.80475 | -1.52583 | 20577 ft | 372 kts | 243° |
| 2026-04-26 11:43 | 42.79233 | -1.55668 | 20136 ft | 370 kts | 242° |
| 2026-04-26 11:43 | 42.78007 | -1.58709 | 19695 ft | 368 kts | 242° |
| 2026-04-26 11:43 | 42.76761 | -1.61795 | 19238 ft | 366 kts | 242° |
| 2026-04-26 11:44 | 42.75541 | -1.64813 | 18792 ft | 365 kts | 242° |
| 2026-04-26 11:44 | 42.74508 | -1.67928 | 18300 ft | 362 kts | 257° |
| 2026-04-26 11:44 | 42.74396 | -1.71274 | 17841 ft | 357 kts | 281° |
| 2026-04-26 11:44 | 42.75233 | -1.74426 | 17391 ft | 352 kts | 301° |
| 2026-04-26 11:45 | 42.76550 | -1.77185 | 16970 ft | 350 kts | 304° |
| 2026-04-26 11:45 | 42.77895 | -1.79932 | 16528 ft | 348 kts | 304° |
| 2026-04-26 11:45 | 42.79236 | -1.82705 | 16072 ft | 347 kts | 304° |
| 2026-04-26 11:45 | 42.80549 | -1.85460 | 15624 ft | 345 kts | 303° |
| 2026-04-26 11:46 | 42.81836 | -1.88188 | 15187 ft | 344 kts | 303° |
| 2026-04-26 11:46 | 42.83115 | -1.90913 | 14755 ft | 342 kts | 303° |
| 2026-04-26 11:46 | 42.84401 | -1.93657 | 14323 ft | 339 kts | 303° |
| 2026-04-26 11:46 | 42.85663 | -1.96352 | 13906 ft | 337 kts | 302° |
| 2026-04-26 11:47 | 42.86912 | -1.99022 | 13485 ft | 336 kts | 302° |
| 2026-04-26 11:47 | 42.88174 | -2.01721 | 13054 ft | 334 kts | 302° |
| 2026-04-26 11:47 | 42.89411 | -2.04371 | 12633 ft | 332 kts | 302° |
| 2026-04-26 11:47 | 42.90659 | -2.07045 | 12202 ft | 330 kts | 302° |
| 2026-04-26 11:48 | 42.91876 | -2.09657 | 11783 ft | 328 kts | 302° |
| 2026-04-26 11:48 | 42.93095 | -2.12275 | 11363 ft | 326 kts | 302° |
| 2026-04-26 11:48 | 42.94313 | -2.14894 | 10955 ft | 323 kts | 302° |
| 2026-04-26 11:48 | 42.95514 | -2.17476 | 10548 ft | 321 kts | 302° |
| 2026-04-26 11:49 | 42.96674 | -2.19972 | 10392 ft | 308 kts | 302° |
| 2026-04-26 11:49 | 42.97815 | -2.22380 | 10277 ft | 295 kts | 305° |
| 2026-04-26 11:49 | 42.99049 | -2.24561 | 10071 ft | 287 kts | 310° |
| 2026-04-26 11:49 | 43.00412 | -2.26581 | 9683 ft | 286 kts | 313° |
| 2026-04-26 11:50 | 43.01772 | -2.28517 | 9332 ft | 284 kts | 314° |
| 2026-04-26 11:50 | 43.03150 | -2.30473 | 8956 ft | 283 kts | 314° |
| 2026-04-26 11:50 | 43.04511 | -2.32412 | 8591 ft | 282 kts | 314° |
| 2026-04-26 11:50 | 43.05867 | -2.34351 | 8231 ft | 281 kts | 314° |
| 2026-04-26 11:51 | 43.07207 | -2.36269 | 7878 ft | 280 kts | 314° |
| 2026-04-26 11:51 | 43.08548 | -2.38190 | 7506 ft | 279 kts | 314° |
| 2026-04-26 11:51 | 43.09880 | -2.40098 | 7187 ft | 275 kts | 314° |
| 2026-04-26 11:51 | 43.11155 | -2.41927 | 6949 ft | 269 kts | 315° |
| 2026-04-26 11:52 | 43.12414 | -2.43836 | 6670 ft | 265 kts | 309° |
| 2026-04-26 11:52 | 43.13116 | -2.45195 | 6499 ft | 263 kts | 303° |
| 2026-04-26 11:52 | 43.14271 | -2.48101 | 6195 ft | 254 kts | 298° |
| 2026-04-26 11:52 | 43.15037 | -2.50190 | 6178 ft | 240 kts | 298° |
| 2026-04-26 11:53 | 43.15771 | -2.52194 | 6150 ft | 232 kts | 298° |
| 2026-04-26 11:53 | 43.16499 | -2.54169 | 5916 ft | 230 kts | 298° |
| 2026-04-26 11:53 | 43.17220 | -2.56120 | 5656 ft | 229 kts | 298° |
| 2026-04-26 11:54 | 43.18659 | -2.60001 | 5155 ft | 223 kts | 298° |
| 2026-04-26 11:54 | 43.19356 | -2.61885 | 4937 ft | 219 kts | 298° |
| 2026-04-26 11:54 | 43.20048 | -2.63730 | 4748 ft | 214 kts | 300° |
| 2026-04-26 11:54 | 43.20753 | -2.65535 | 4431 ft | 215 kts | 299° |
| 2026-04-26 11:55 | 43.21436 | -2.67322 | 4113 ft | 217 kts | 298° |
| 2026-04-26 11:55 | 43.22120 | -2.69162 | 3785 ft | 213 kts | 298° |
| 2026-04-26 11:55 | 43.22770 | -2.70948 | 3514 ft | 206 kts | 298° |
| 2026-04-26 11:55 | 43.23394 | -2.72672 | 3248 ft | 196 kts | 298° |
| 2026-04-26 11:56 | 43.23983 | -2.74297 | 2930 ft | 189 kts | 298° |
| 2026-04-26 11:56 | 43.24567 | -2.75905 | 2624 ft | 184 kts | 298° |
| 2026-04-26 11:56 | 43.25129 | -2.77445 | 2367 ft | 175 kts | 298° |
| 2026-04-26 11:56 | 43.25657 | -2.78896 | 2102 ft | 167 kts | 298° |
| 2026-04-26 11:57 | 43.26159 | -2.80272 | 1863 ft | 155 kts | 298° |
| 2026-04-26 11:57 | 43.26625 | -2.81545 | 1630 ft | 143 kts | 298° |
| 2026-04-26 11:57 | 43.27066 | -2.82744 | 1400 ft | 138 kts | 300° |
| 2026-04-26 11:57 | 43.27501 | -2.83913 | 1221 ft | 138 kts | 298° |
| 2026-04-26 11:58 | 43.27920 | -2.85110 | 1032 ft | 137 kts | 299° |
| 2026-04-26 11:58 | 43.28350 | -2.86282 | 830 ft | 137 kts | 299° |
| 2026-04-26 11:58 | 43.28780 | -2.87449 | 630 ft | 137 kts | 299° |
| 2026-04-26 11:58 | 43.29214 | -2.88622 | 435 ft | 136 kts | 299° |
| 2026-04-26 11:59 | 43.29647 | -2.89810 | 227 ft | 135 kts | 300° |
| 2026-04-26 11:59 | 43.30062 | -2.90919 | 137 ft | 110 kts | 299° |
| 2026-04-26 11:59 | 43.30294 | -2.91561 | 132 ft | 50 kts | 296° |
| 2026-04-26 11:59 | 43.30438 | -2.91898 | 131 ft | 36 kts | 314° |
| 2026-04-26 12:00 | 43.30605 | -2.92044 | 143 ft | 15 kts | 8° |
| 2026-04-26 12:00 | 43.30630 | -2.91977 | 153 ft | 6 kts | 107° |
| 2026-04-26 12:00 | 43.30596 | -2.91881 | 152 ft | 15 kts | 117° |
| 2026-04-26 12:00 | 43.30542 | -2.91731 | 153 ft | 18 kts | 116° |
| 2026-04-26 12:01 | 43.30488 | -2.91577 | 153 ft | 18 kts | 114° |
| 2026-04-26 12:01 | 43.30426 | -2.91409 | 149 ft | 20 kts | 115° |
| 2026-04-26 12:01 | 43.30357 | -2.91222 | 144 ft | 22 kts | 117° |
| 2026-04-26 12:01 | 43.30308 | -2.91089 | 146 ft | 11 kts | 110° |
| 2026-04-26 12:02 | 43.30355 | -2.91007 | 150 ft | 12 kts | 25° |
| 2026-04-26 12:02 | 43.30401 | -2.90975 | 156 ft | 10 kts | 38° |
| 2026-04-26 12:02 | 43.30409 | -2.90816 | 156 ft | 9 kts | 105° |
| 2026-04-26 12:02 | 43.30432 | -2.90762 | 158 ft | 6 kts | 31° |
| 2026-04-26 12:03 | 43.30459 | -2.90743 | 161 ft | 3 kts | 26° |
| 2026-04-26 12:03 | 43.30465 | -2.90739 | 161 ft | 0 kts | 26° |